createdAt,value
2016-08-18T00:01:06.028Z,11.91
2016-08-18T00:02:51.801Z,11.96
2016-08-18T00:04:06.010Z,11.8
2016-08-18T00:05:06.005Z,11.83
2016-08-18T00:05:51.387Z,11.8
2016-08-18T00:06:51.082Z,11.85
2016-08-18T00:07:51.076Z,11.88
2016-08-18T00:08:51.072Z,11.91
2016-08-18T00:09:51.065Z,11.88
2016-08-18T00:10:51.057Z,11.86
2016-08-18T00:11:51.058Z,11.91
2016-08-18T00:12:51.052Z,11.83
2016-08-18T00:13:51.043Z,11.86
2016-08-18T00:14:51.039Z,11.9
2016-08-18T00:15:51.032Z,11.83
2016-08-18T00:16:51.027Z,11.9
2016-08-18T00:17:51.016Z,11.85
2016-08-18T00:18:51.022Z,11.82
2016-08-18T00:19:51.009Z,11.76
2016-08-18T00:20:51.009Z,11.79
2016-08-18T00:21:51.000Z,11.83
2016-08-18T00:22:50.997Z,11.85
2016-08-18T00:23:50.992Z,11.75
2016-08-18T00:24:50.996Z,11.79
2016-08-18T00:25:50.996Z,11.76
2016-08-18T00:26:50.974Z,11.78
2016-08-18T00:27:50.983Z,11.78
2016-08-18T00:28:50.966Z,11.76
2016-08-18T00:29:50.956Z,11.72
2016-08-18T00:30:50.954Z,11.75
2016-08-18T00:31:52.473Z,11.73
2016-08-18T00:32:51.501Z,11.82
2016-08-18T00:33:51.790Z,11.79
2016-08-18T00:34:50.936Z,11.79
2016-08-18T00:35:50.979Z,11.78
2016-08-18T00:36:50.926Z,11.88
2016-08-18T00:37:50.920Z,11.9
2016-08-18T00:38:50.912Z,11.78
2016-08-18T00:39:50.905Z,11.79
2016-08-18T00:41:53.661Z,11.83
2016-08-18T00:42:50.893Z,11.8
2016-08-18T00:43:51.716Z,11.85
2016-08-18T00:44:50.880Z,11.88
2016-08-18T00:45:50.874Z,11.82
2016-08-18T00:46:50.867Z,11.78
2016-08-18T00:47:50.870Z,11.75
2016-08-18T00:48:50.856Z,11.76
2016-08-18T00:49:50.855Z,11.65
2016-08-18T00:50:50.845Z,11.54
2016-08-18T00:51:50.846Z,11.54
2016-08-18T00:52:50.841Z,11.54
2016-08-18T00:53:50.829Z,11.46
2016-08-18T00:54:50.829Z,11.49
2016-08-18T00:55:50.820Z,11.49
2016-08-18T00:56:51.517Z,11.39
2016-08-18T00:57:50.812Z,11.44
2016-08-18T00:58:50.812Z,11.4
2016-08-18T00:59:50.807Z,11.37
2016-08-18T01:00:50.814Z,11.29
2016-08-18T01:01:50.790Z,11.28
2016-08-18T01:02:50.786Z,11.32
2016-08-18T01:03:50.780Z,11.25
2016-08-18T01:04:50.778Z,11.25
2016-08-18T01:05:50.763Z,11.25
2016-08-18T01:06:50.760Z,11.25
2016-08-18T01:07:50.758Z,11.25
2016-08-18T01:08:50.754Z,11.25
2016-08-18T01:09:51.593Z,11.18
2016-08-18T01:10:51.500Z,11.15
2016-08-18T01:11:51.181Z,11.18
2016-08-18T01:12:51.379Z,11.15
2016-08-18T01:13:51.322Z,11.17
2016-08-18T01:14:50.716Z,11.07
2016-08-18T01:15:50.713Z,11.11
2016-08-18T01:16:50.698Z,11.09
2016-08-18T01:17:50.700Z,11.1
2016-08-18T01:19:05.605Z,11.07
2016-08-18T01:19:50.688Z,11.06
2016-08-18T01:20:51.835Z,11.06
2016-08-18T01:21:51.028Z,11.04
2016-08-18T01:22:51.269Z,10.97
2016-08-18T01:23:50.670Z,11.02
2016-08-18T01:24:50.662Z,10.99
2016-08-18T01:25:50.655Z,10.99
2016-08-18T01:26:51.346Z,10.92
2016-08-18T01:27:50.634Z,10.96
2016-08-18T01:28:50.642Z,10.96
2016-08-18T01:29:50.630Z,10.94
2016-08-18T01:30:50.625Z,10.97
2016-08-18T01:31:50.617Z,10.96
2016-08-18T01:32:50.612Z,10.89
2016-08-18T01:33:50.603Z,10.89
2016-08-18T01:34:50.598Z,10.97
2016-08-18T01:35:50.599Z,10.91
2016-08-18T01:36:50.589Z,11.02
2016-08-18T01:37:50.578Z,10.99
2016-08-18T01:38:50.572Z,10.97
2016-08-18T01:39:50.571Z,10.91
2016-08-18T01:40:50.565Z,10.91
2016-08-18T01:41:50.564Z,10.92
2016-08-18T01:42:50.558Z,10.88
2016-08-18T01:43:50.546Z,10.89
2016-08-18T01:44:50.547Z,10.91
2016-08-18T01:45:50.531Z,10.85
2016-08-18T01:46:50.529Z,10.86
2016-08-18T01:47:50.521Z,10.88
2016-08-18T01:48:50.520Z,10.85
2016-08-18T01:49:52.479Z,10.85
2016-08-18T01:51:50.930Z,10.79
2016-08-18T01:52:50.497Z,10.76
2016-08-18T01:53:51.391Z,10.74
2016-08-18T01:54:50.483Z,10.76
2016-08-18T01:55:50.899Z,10.81
2016-08-18T01:56:50.471Z,10.76
2016-08-18T01:57:50.463Z,10.79
2016-08-18T01:58:52.599Z,10.76
2016-08-18T01:59:52.124Z,10.81
2016-08-18T02:00:51.857Z,10.78
2016-08-18T02:01:51.540Z,10.76
2016-08-18T02:02:50.781Z,10.81
2016-08-18T02:03:50.967Z,10.79
2016-08-18T02:04:50.839Z,10.79
2016-08-18T02:05:50.418Z,10.73
2016-08-18T02:06:50.415Z,10.81
2016-08-18T02:07:50.397Z,10.71
2016-08-18T02:08:50.402Z,10.68
2016-08-18T02:09:50.389Z,10.76
2016-08-18T02:10:50.392Z,10.76
2016-08-18T02:11:50.375Z,10.76
2016-08-18T02:12:50.383Z,10.79
2016-08-18T02:13:50.368Z,10.73
2016-08-18T02:14:50.365Z,10.68
2016-08-18T02:15:50.358Z,10.67
2016-08-18T02:16:50.350Z,10.64
2016-08-18T02:17:50.350Z,10.66
2016-08-18T02:18:50.333Z,10.66
2016-08-18T02:19:50.337Z,10.66
2016-08-18T02:20:50.323Z,10.66
2016-08-18T02:21:52.423Z,10.67
2016-08-18T02:22:50.311Z,10.66
2016-08-18T02:23:50.312Z,10.68
2016-08-18T02:24:50.303Z,10.64
2016-08-18T02:25:50.297Z,10.66
2016-08-18T02:26:50.303Z,10.61
2016-08-18T02:27:50.383Z,10.68
2016-08-18T02:28:50.626Z,10.67
2016-08-18T02:29:50.670Z,10.55
2016-08-18T02:30:50.264Z,10.56
2016-08-18T02:31:50.260Z,10.61
2016-08-18T02:32:50.258Z,10.67
2016-08-18T02:33:50.246Z,10.63
2016-08-18T02:34:50.241Z,10.67
2016-08-18T02:35:50.231Z,10.56
2016-08-18T02:37:05.141Z,10.66
2016-08-18T02:37:50.821Z,10.63
2016-08-18T02:38:50.218Z,10.64
2016-08-18T02:39:50.511Z,10.6
2016-08-18T02:40:50.204Z,10.55
2016-08-18T02:41:50.198Z,10.55
2016-08-18T02:42:50.200Z,10.55
2016-08-18T02:43:50.186Z,10.51
2016-08-18T02:44:53.276Z,10.56
2016-08-18T02:45:50.167Z,10.55
2016-08-18T02:46:50.169Z,10.56
2016-08-18T02:47:50.159Z,10.59
2016-08-18T02:48:50.159Z,10.48
2016-08-18T02:49:50.147Z,10.53
2016-08-18T02:50:50.144Z,10.52
2016-08-18T02:51:50.134Z,10.56
2016-08-18T02:52:50.137Z,10.52
2016-08-18T02:53:50.121Z,10.52
2016-08-18T02:54:50.118Z,10.53
2016-08-18T02:55:50.113Z,10.59
2016-08-18T02:56:50.110Z,10.56
2016-08-18T02:57:50.118Z,10.56
2016-08-18T02:58:50.094Z,10.53
2016-08-18T02:59:50.088Z,10.56
2016-08-18T03:00:50.093Z,10.48
2016-08-18T03:01:50.077Z,10.47
2016-08-18T03:02:50.061Z,10.47
2016-08-18T03:03:50.066Z,10.4
2016-08-18T03:04:50.055Z,10.47
2016-08-18T03:05:50.045Z,10.44
2016-08-18T03:06:50.057Z,10.42
2016-08-18T03:09:51.238Z,10.48
2016-08-18T03:10:50.930Z,10.42
2016-08-18T03:11:50.008Z,10.47
2016-08-18T03:12:50.312Z,10.59
2016-08-18T03:13:50.112Z,10.52
2016-08-18T03:14:49.993Z,10.53
2016-08-18T03:15:50.766Z,10.6
2016-08-18T03:16:51.497Z,10.53
2016-08-18T03:17:51.895Z,10.66
2016-08-18T03:18:51.992Z,10.6
2016-08-18T03:19:49.960Z,10.68
2016-08-18T03:20:51.561Z,10.6
2016-08-18T03:21:50.054Z,10.67
2016-08-18T03:22:50.010Z,10.63
2016-08-18T03:23:49.939Z,10.64
2016-08-18T03:24:49.931Z,10.64
2016-08-18T03:25:49.919Z,10.67
2016-08-18T03:26:49.921Z,10.64
2016-08-18T03:27:49.909Z,10.56
2016-08-18T03:28:49.914Z,10.67
2016-08-18T03:29:49.903Z,10.66
2016-08-18T03:30:49.896Z,10.66
2016-08-18T03:31:49.883Z,10.53
2016-08-18T03:32:49.894Z,10.56
2016-08-18T03:33:49.878Z,10.52
2016-08-18T03:34:49.872Z,10.6
2016-08-18T03:35:49.859Z,10.59
2016-08-18T03:36:49.872Z,10.55
2016-08-18T03:37:49.853Z,10.56
2016-08-18T03:38:49.848Z,10.48
2016-08-18T03:39:49.836Z,10.56
2016-08-18T03:40:49.838Z,10.56
2016-08-18T03:41:49.833Z,10.51
2016-08-18T03:42:49.823Z,10.59
2016-08-18T03:43:50.513Z,10.56
2016-08-18T03:44:49.810Z,10.52
2016-08-18T03:46:49.848Z,10.59
2016-08-18T03:47:49.791Z,10.56
2016-08-18T03:48:50.740Z,10.6
2016-08-18T03:49:49.779Z,10.59
2016-08-18T03:50:49.772Z,10.52
2016-08-18T03:51:49.768Z,10.59
2016-08-18T03:52:49.756Z,10.47
2016-08-18T03:53:49.809Z,10.45
2016-08-18T03:55:50.443Z,10.47
2016-08-18T03:56:50.692Z,10.42
2016-08-18T03:57:50.179Z,10.42
2016-08-18T03:58:49.723Z,10.47
2016-08-18T03:59:49.722Z,10.48
2016-08-18T04:00:49.713Z,10.52
2016-08-18T04:01:49.706Z,10.45
2016-08-18T04:02:49.700Z,10.48
2016-08-18T04:03:49.694Z,10.44
2016-08-18T04:04:50.391Z,10.47
2016-08-18T04:05:49.683Z,10.47
2016-08-18T04:06:49.682Z,10.47
2016-08-18T04:07:49.670Z,10.6
2016-08-18T04:08:49.670Z,10.53
2016-08-18T04:09:49.658Z,10.53
2016-08-18T04:10:49.655Z,10.53
2016-08-18T04:11:49.645Z,10.59
2016-08-18T04:12:49.641Z,10.56
2016-08-18T04:13:49.633Z,10.59
2016-08-18T04:14:49.627Z,10.48
2016-08-18T04:15:49.621Z,10.51
2016-08-18T04:16:49.613Z,10.55
2016-08-18T04:17:49.617Z,10.68
2016-08-18T04:18:49.600Z,10.74
2016-08-18T04:19:49.601Z,10.7
2016-08-18T04:20:49.591Z,10.84
2016-08-18T04:21:50.481Z,10.92
2016-08-18T04:22:49.572Z,11.03
2016-08-18T04:23:49.572Z,11.07
2016-08-18T04:24:49.565Z,11.17
2016-08-18T04:26:49.652Z,11.29
2016-08-18T04:27:51.602Z,11.46
2016-08-18T04:28:51.455Z,11.51
2016-08-18T04:29:50.255Z,11.7
2016-08-18T04:30:49.542Z,11.88
2016-08-18T04:31:49.530Z,12.1
2016-08-18T04:32:49.512Z,12.21
2016-08-18T04:33:49.529Z,12.49
2016-08-18T04:34:51.025Z,12.64
2016-08-18T04:36:50.243Z,12.82
2016-08-18T04:37:50.611Z,12.97
2016-08-18T04:38:49.663Z,13.11
2016-08-18T04:39:49.491Z,13.26
2016-08-18T04:40:49.472Z,13.23
2016-08-18T04:41:49.472Z,13.33
2016-08-18T04:42:49.469Z,13.33
2016-08-18T04:43:49.461Z,13.42
2016-08-18T04:44:49.456Z,13.46
2016-08-18T04:45:50.151Z,13.52
2016-08-18T04:46:49.453Z,13.59
2016-08-18T04:47:49.443Z,13.64
2016-08-18T04:48:49.437Z,13.6
2016-08-18T04:49:49.437Z,13.67
2016-08-18T04:50:49.431Z,13.73
2016-08-18T04:51:49.428Z,13.79
2016-08-18T04:52:49.418Z,13.82
2016-08-18T04:53:49.421Z,13.85
2016-08-18T04:54:49.412Z,13.82
2016-08-18T04:55:49.411Z,13.89
2016-08-18T04:56:49.402Z,13.84
2016-08-18T04:57:49.402Z,13.91
2016-08-18T04:58:49.396Z,13.91
2016-08-18T04:59:49.396Z,13.85
2016-08-18T05:00:49.392Z,14
2016-08-18T05:01:49.384Z,13.92
2016-08-18T05:02:49.383Z,13.97
2016-08-18T05:04:50.072Z,14.1
2016-08-18T05:05:50.277Z,14.03
2016-08-18T05:06:49.769Z,14.09
2016-08-18T05:08:04.279Z,14.17
2016-08-18T05:08:49.355Z,14.09
2016-08-18T05:09:49.353Z,14.12
2016-08-18T05:10:49.607Z,14.12
2016-08-18T05:11:49.346Z,14.2
2016-08-18T05:14:05.407Z,14.22
2016-08-18T05:14:49.937Z,14.32
2016-08-18T05:15:49.585Z,14.35
2016-08-18T05:17:04.245Z,14.24
2016-08-18T05:17:49.324Z,14.25
2016-08-18T05:18:49.313Z,14.37
2016-08-18T05:19:49.313Z,14.43
2016-08-18T05:20:49.309Z,14.43
2016-08-18T05:21:49.311Z,14.4
2016-08-18T05:22:49.303Z,14.58
2016-08-18T05:23:49.298Z,14.58
2016-08-18T05:24:49.301Z,14.57
2016-08-18T05:25:49.292Z,14.68
2016-08-18T05:26:49.296Z,14.64
2016-08-18T05:27:49.281Z,14.73
2016-08-18T05:28:49.285Z,14.84
2016-08-18T05:29:49.287Z,14.88
2016-08-18T05:30:49.275Z,14.92
2016-08-18T05:31:49.267Z,15.01
2016-08-18T05:32:49.266Z,15.06
2016-08-18T05:33:49.265Z,15.14
2016-08-18T05:34:49.263Z,15.21
2016-08-18T05:35:49.258Z,15.21
2016-08-18T05:36:49.256Z,15.28
2016-08-18T05:37:49.251Z,15.34
2016-08-18T05:38:49.250Z,15.41
2016-08-18T05:39:49.244Z,15.35
2016-08-18T05:40:49.245Z,15.44
2016-08-18T05:41:49.241Z,15.54
2016-08-18T05:42:49.243Z,15.59
2016-08-18T05:44:49.909Z,15.65
2016-08-18T05:45:52.184Z,15.57
2016-08-18T05:46:49.466Z,15.75
2016-08-18T05:47:49.676Z,15.74
2016-08-18T05:48:49.218Z,15.89
2016-08-18T05:49:49.223Z,15.92
2016-08-18T05:50:49.215Z,15.97
2016-08-18T05:51:49.372Z,16.01
2016-08-18T05:52:49.804Z,16.05
2016-08-18T05:54:51.435Z,16.15
2016-08-18T05:55:49.205Z,16.17
2016-08-18T05:56:49.470Z,16.27
2016-08-18T05:57:49.194Z,16.3
2016-08-18T05:58:49.356Z,16.38
2016-08-18T05:59:49.297Z,16.41
2016-08-18T06:00:49.191Z,16.41
2016-08-18T06:01:49.192Z,16.5
2016-08-18T06:02:49.185Z,16.58
2016-08-18T06:03:49.188Z,16.53
2016-08-18T06:04:49.184Z,16.66
2016-08-18T06:05:49.177Z,16.7
2016-08-18T06:06:49.191Z,16.71
2016-08-18T06:07:49.178Z,16.81
2016-08-18T06:08:49.169Z,16.83
2016-08-18T06:09:49.170Z,16.86
2016-08-18T06:10:49.172Z,16.97
2016-08-18T06:11:49.166Z,17.01
2016-08-18T06:12:49.159Z,17.06
2016-08-18T06:13:49.163Z,17.15
2016-08-18T06:14:49.165Z,17.18
2016-08-18T06:15:49.155Z,17.23
2016-08-18T06:16:49.156Z,17.3
2016-08-18T06:17:49.169Z,17.38
2016-08-18T06:18:49.859Z,17.38
2016-08-18T06:19:49.156Z,17.49
2016-08-18T06:20:49.148Z,17.54
2016-08-18T06:22:49.748Z,17.68
2016-08-18T06:23:50.845Z,17.75
2016-08-18T06:25:08.415Z,17.87
2016-08-18T06:26:04.061Z,17.92
2016-08-18T06:26:49.137Z,17.92
2016-08-18T06:27:49.845Z,18
2016-08-18T06:28:49.131Z,18.12
2016-08-18T06:29:49.134Z,18.21
2016-08-18T06:30:49.641Z,18.2
2016-08-18T06:31:49.830Z,18.39
2016-08-18T06:33:04.614Z,18.39
2016-08-18T06:34:04.052Z,18.54
2016-08-18T06:34:49.144Z,18.54
2016-08-18T06:35:49.129Z,18.58
2016-08-18T06:36:49.134Z,18.67
2016-08-18T06:37:49.128Z,18.73
2016-08-18T06:38:49.142Z,18.81
2016-08-18T06:39:49.135Z,18.87
2016-08-18T06:40:49.127Z,18.91
2016-08-18T06:41:49.124Z,18.94
2016-08-18T06:42:49.128Z,19.06
2016-08-18T06:43:49.125Z,19.14
2016-08-18T06:44:49.130Z,19.18
2016-08-18T06:45:49.143Z,19.22
2016-08-18T06:46:49.146Z,19.29
2016-08-18T06:47:49.126Z,19.32
2016-08-18T06:48:49.126Z,19.4
2016-08-18T06:49:49.845Z,19.46
2016-08-18T06:50:49.127Z,19.54
2016-08-18T06:51:49.128Z,19.65
2016-08-18T06:52:49.124Z,19.56
2016-08-18T06:53:49.126Z,19.73
2016-08-18T06:54:49.128Z,19.76
2016-08-18T06:55:49.123Z,19.88
2016-08-18T06:56:49.133Z,19.86
2016-08-18T06:57:49.136Z,19.88
2016-08-18T06:58:49.131Z,19.87
2016-08-18T06:59:49.136Z,19.95
2016-08-18T07:00:49.139Z,19.92
2016-08-18T07:02:50.621Z,20.05
2016-08-18T07:03:49.740Z,20.02
2016-08-18T07:04:49.129Z,20.08
2016-08-18T07:05:49.130Z,20.24
2016-08-18T07:06:49.133Z,20.17
2016-08-18T07:07:49.135Z,20.26
2016-08-18T07:08:49.354Z,20.29
2016-08-18T07:09:49.132Z,20.28
2016-08-18T07:10:49.134Z,20.31
2016-08-18T07:11:49.687Z,20.36
2016-08-18T07:12:49.262Z,20.42
2016-08-18T07:13:49.137Z,20.39
2016-08-18T07:14:49.149Z,20.5
2016-08-18T07:15:49.140Z,20.47
2016-08-18T07:16:49.538Z,20.43
2016-08-18T07:17:49.143Z,20.52
2016-08-18T07:18:49.141Z,20.52
2016-08-18T07:19:49.146Z,20.58
2016-08-18T07:20:49.145Z,20.54
2016-08-18T07:21:49.146Z,20.61
2016-08-18T07:22:49.247Z,20.69
2016-08-18T07:23:49.145Z,20.79
2016-08-18T07:24:49.154Z,20.79
2016-08-18T07:25:49.149Z,20.97
2016-08-18T07:26:49.157Z,21.06
2016-08-18T07:27:50.106Z,21.13
2016-08-18T07:28:49.159Z,21.1
2016-08-18T07:29:49.162Z,21.19
2016-08-18T07:30:49.158Z,21.35
2016-08-18T07:31:49.169Z,21.35
2016-08-18T07:32:49.167Z,21.4
2016-08-18T07:33:49.158Z,21.54
2016-08-18T07:34:49.165Z,21.58
2016-08-18T07:35:49.178Z,21.64
2016-08-18T07:36:49.166Z,21.68
2016-08-18T07:37:49.175Z,21.74
2016-08-18T07:38:49.170Z,21.82
2016-08-18T07:41:16.871Z,21.96
2016-08-18T07:41:49.678Z,22.02
2016-08-18T07:43:04.094Z,21.98
2016-08-18T07:43:49.832Z,22.03
2016-08-18T07:44:49.183Z,22.06
2016-08-18T07:45:49.286Z,22.14
2016-08-18T07:46:49.194Z,22.1
2016-08-18T07:47:49.189Z,22.12
2016-08-18T07:49:05.410Z,22.12
2016-08-18T07:49:49.296Z,22.21
2016-08-18T07:50:49.997Z,22.21
2016-08-18T07:51:49.203Z,22.2
2016-08-18T07:52:49.450Z,22.22
2016-08-18T07:53:49.804Z,22.24
2016-08-18T07:54:49.207Z,22.35
2016-08-18T07:55:49.210Z,22.39
2016-08-18T07:56:49.216Z,22.35
2016-08-18T07:57:49.216Z,22.37
2016-08-18T07:58:49.216Z,22.36
2016-08-18T07:59:49.917Z,22.36
2016-08-18T08:00:49.215Z,22.46
2016-08-18T08:01:49.223Z,22.47
2016-08-18T08:02:49.230Z,22.49
2016-08-18T08:03:49.239Z,22.61
2016-08-18T08:04:49.234Z,22.51
2016-08-18T08:05:49.236Z,22.6
2016-08-18T08:06:49.238Z,22.61
2016-08-18T08:07:49.239Z,22.64
2016-08-18T08:08:49.245Z,22.6
2016-08-18T08:09:49.249Z,22.65
2016-08-18T08:10:49.245Z,22.58
2016-08-18T08:11:49.255Z,22.62
2016-08-18T08:12:49.252Z,22.75
2016-08-18T08:13:49.258Z,22.79
2016-08-18T08:14:49.259Z,22.85
2016-08-18T08:15:49.263Z,22.94
2016-08-18T08:16:49.962Z,23.05
2016-08-18T08:17:49.271Z,23.17
2016-08-18T08:18:49.997Z,23.19
2016-08-18T08:19:49.273Z,23.25
2016-08-18T08:20:49.684Z,23.48
2016-08-18T08:21:49.375Z,23.51
2016-08-18T08:22:50.780Z,23.69
2016-08-18T08:23:49.287Z,23.68
2016-08-18T08:24:50.541Z,23.79
2016-08-18T08:25:49.767Z,23.88
2016-08-18T08:26:49.304Z,23.95
2016-08-18T08:27:49.307Z,24.1
2016-08-18T08:28:49.309Z,24.1
2016-08-18T08:29:50.920Z,24.24
2016-08-18T08:30:50.875Z,24.31
2016-08-18T08:31:50.888Z,24.37
2016-08-18T08:32:49.322Z,24.43
2016-08-18T08:33:49.331Z,24.49
2016-08-18T08:34:50.481Z,24.49
2016-08-18T08:35:52.832Z,24.62
2016-08-18T08:36:49.368Z,24.6
2016-08-18T08:37:49.352Z,24.8
2016-08-18T08:38:49.514Z,24.93
2016-08-18T08:39:49.366Z,25.03
2016-08-18T08:40:49.362Z,25.21
2016-08-18T08:41:49.362Z,25.33
2016-08-18T08:42:49.393Z,25.43
2016-08-18T08:43:49.370Z,25.62
2016-08-18T08:44:49.380Z,25.8
2016-08-18T08:45:50.083Z,25.91
2016-08-18T08:46:49.405Z,25.94
2016-08-18T08:47:50.096Z,25.99
2016-08-18T08:48:49.410Z,26.06
2016-08-18T08:49:49.411Z,26.17
2016-08-18T08:50:49.417Z,26.2
2016-08-18T08:51:49.500Z,26.25
2016-08-18T08:52:49.472Z,26.23
2016-08-18T08:53:49.439Z,26.25
2016-08-18T08:54:49.445Z,26.3
2016-08-18T08:55:49.454Z,26.33
2016-08-18T08:56:49.592Z,26.36
2016-08-18T08:58:04.382Z,26.45
2016-08-18T08:58:49.613Z,26.57
2016-08-18T08:59:49.922Z,26.6
2016-08-18T09:01:50.239Z,26.87
2016-08-18T09:02:49.538Z,27.07
2016-08-18T09:03:49.497Z,27.12
2016-08-18T09:04:49.510Z,27.29
2016-08-18T09:05:49.507Z,27.44
2016-08-18T09:06:49.718Z,27.55
2016-08-18T09:10:49.554Z,27.69
2016-08-18T09:11:49.553Z,27.74
2016-08-18T09:12:49.566Z,27.82
2016-08-18T09:13:49.573Z,27.94
2016-08-18T09:14:49.583Z,27.92
2016-08-18T09:15:50.284Z,27.99
2016-08-18T09:16:50.287Z,28.11
2016-08-18T09:17:49.607Z,28.11
2016-08-18T09:18:49.613Z,28.21
2016-08-18T09:19:49.626Z,28.36
2016-08-18T09:20:49.657Z,28.39
2016-08-18T09:21:49.634Z,28.49
2016-08-18T09:22:49.642Z,28.51
2016-08-18T09:23:49.649Z,28.43
2016-08-18T09:24:49.660Z,28.41
2016-08-18T09:25:49.663Z,28.44
2016-08-18T09:26:49.674Z,28.58
2016-08-18T09:27:49.683Z,28.56
2016-08-18T09:28:49.695Z,28.62
2016-08-18T09:29:49.702Z,28.61
2016-08-18T09:30:49.722Z,28.62
2016-08-18T09:31:49.734Z,28.52
2016-08-18T09:32:49.728Z,28.48
2016-08-18T09:33:49.732Z,28.43
2016-08-18T09:34:49.754Z,28.34
2016-08-18T09:35:50.164Z,28.09
2016-08-18T09:36:49.758Z,28.04
2016-08-18T09:37:49.767Z,27.97
2016-08-18T09:38:51.209Z,27.78
2016-08-18T09:39:51.228Z,27.81
2016-08-18T09:40:49.827Z,27.82
2016-08-18T09:41:51.221Z,28.03
2016-08-18T09:42:51.337Z,28.11
2016-08-18T09:43:50.389Z,28.17
2016-08-18T09:44:49.830Z,28.11
2016-08-18T09:45:49.834Z,27.96
2016-08-18T09:46:49.854Z,27.87
2016-08-18T09:47:50.471Z,27.84
2016-08-18T09:48:50.867Z,27.77
2016-08-18T09:49:49.867Z,27.84
2016-08-18T09:50:51.515Z,27.87
2016-08-18T09:51:49.896Z,27.87
2016-08-18T09:52:49.912Z,27.92
2016-08-18T09:53:49.922Z,27.96
2016-08-18T09:54:49.897Z,28.04
2016-08-18T09:55:49.908Z,28.17
2016-08-18T09:56:49.918Z,28.22
2016-08-18T09:57:49.921Z,28.25
2016-08-18T09:58:49.934Z,28.18
2016-08-18T09:59:49.935Z,28.12
2016-08-18T10:00:49.952Z,27.93
2016-08-18T10:01:49.955Z,27.55
2016-08-18T10:02:49.988Z,27.28
2016-08-18T10:03:49.976Z,27.12
2016-08-18T10:04:50.049Z,27.27
2016-08-18T10:05:49.988Z,27.36
2016-08-18T10:06:49.994Z,27.54
2016-08-18T10:07:50.083Z,27.77
2016-08-18T10:08:50.716Z,27.7
2016-08-18T10:09:50.014Z,27.39
2016-08-18T10:10:50.020Z,27.21
2016-08-18T10:11:50.032Z,27.13
2016-08-18T10:12:50.040Z,27
2016-08-18T10:13:50.048Z,27.02
2016-08-18T10:14:50.055Z,26.82
2016-08-18T10:15:50.065Z,26.76
2016-08-18T10:17:05.041Z,26.54
2016-08-18T10:18:50.081Z,26.07
2016-08-18T10:19:50.242Z,26.01
2016-08-18T10:20:50.643Z,25.88
2016-08-18T10:21:50.102Z,25.76
2016-08-18T10:22:50.216Z,25.62
2016-08-18T10:23:50.124Z,25.69
2016-08-18T10:24:50.127Z,25.57
2016-08-18T10:25:51.600Z,25.47
2016-08-18T10:27:50.506Z,25.43
2016-08-18T10:29:50.815Z,25.15
2016-08-18T10:30:50.272Z,24.91
2016-08-18T10:31:50.182Z,24.91
2016-08-18T10:32:50.186Z,24.87
2016-08-18T10:33:50.182Z,25.03
2016-08-18T10:34:50.196Z,25.02
2016-08-18T10:35:50.206Z,25.15
2016-08-18T10:36:50.207Z,25.14
2016-08-18T10:37:50.217Z,25.17
2016-08-18T10:38:50.223Z,25.06
2016-08-18T10:39:50.236Z,25.02
2016-08-18T10:40:50.229Z,24.93
2016-08-18T10:41:50.246Z,24.81
2016-08-18T10:42:50.244Z,24.71
2016-08-18T10:43:50.256Z,24.64
2016-08-18T10:44:50.263Z,24.49
2016-08-18T10:45:50.264Z,24.65
2016-08-18T10:46:50.270Z,24.64
2016-08-18T10:47:50.277Z,24.49
2016-08-18T10:48:50.288Z,24.47
2016-08-18T10:49:50.287Z,24.53
2016-08-18T10:50:50.318Z,24.64
2016-08-18T10:51:50.304Z,24.58
2016-08-18T10:52:50.307Z,24.5
2016-08-18T10:53:50.311Z,24.61
2016-08-18T10:54:50.322Z,24.73
2016-08-18T10:55:50.329Z,24.85
2016-08-18T10:57:53.066Z,25.09
2016-08-18T10:58:51.917Z,25.15
2016-08-18T10:59:50.788Z,25.1
2016-08-18T11:00:50.359Z,25.33
2016-08-18T11:01:51.358Z,25.47
2016-08-18T11:02:50.378Z,25.52
2016-08-18T11:03:50.377Z,25.52
2016-08-18T11:04:51.083Z,25.62
2016-08-18T11:05:51.784Z,25.6
2016-08-18T11:06:52.618Z,25.65
2016-08-18T11:07:51.724Z,25.85
2016-08-18T11:08:50.844Z,26.05
2016-08-18T11:09:50.416Z,26.07
2016-08-18T11:10:50.426Z,26.36
2016-08-18T11:11:51.137Z,26.54
2016-08-18T11:12:50.442Z,26.62
2016-08-18T11:13:50.440Z,26.47
2016-08-18T11:14:50.443Z,26.4
2016-08-18T11:15:50.455Z,26.28
2016-08-18T11:16:50.459Z,26.25
2016-08-18T11:17:50.472Z,26.05
2016-08-18T11:18:50.480Z,26.09
2016-08-18T11:19:50.481Z,26.21
2016-08-18T11:20:50.486Z,26.05
2016-08-18T11:21:50.493Z,25.9
2016-08-18T11:22:50.602Z,25.7
2016-08-18T11:23:50.499Z,25.58
2016-08-18T11:24:50.524Z,25.58
2016-08-18T11:25:50.519Z,25.65
2016-08-18T11:26:50.527Z,25.7
2016-08-18T11:27:50.533Z,25.82
2016-08-18T11:28:50.541Z,25.73
2016-08-18T11:29:50.556Z,25.61
2016-08-18T11:30:50.550Z,25.43
2016-08-18T11:31:50.557Z,25.32
2016-08-18T11:32:50.572Z,25.4
2016-08-18T11:33:50.568Z,25.15
2016-08-18T11:34:50.931Z,25.05
2016-08-18T11:35:51.084Z,24.95
2016-08-18T11:36:50.795Z,24.88
2016-08-18T11:37:51.049Z,24.8
2016-08-18T11:38:51.250Z,24.68
2016-08-18T11:39:50.735Z,24.53
2016-08-18T11:40:50.611Z,24.21
2016-08-18T11:41:50.615Z,24.15
2016-08-18T11:42:50.629Z,24.1
2016-08-18T11:43:51.031Z,23.93
2016-08-18T11:44:51.189Z,23.95
2016-08-18T11:45:50.991Z,24
2016-08-18T11:46:50.707Z,23.98
2016-08-18T11:47:51.370Z,23.95
2016-08-18T11:48:50.658Z,23.95
2016-08-18T11:49:51.371Z,23.79
2016-08-18T11:50:51.043Z,23.78
2016-08-18T11:51:50.669Z,23.83
2016-08-18T11:52:50.685Z,23.72
2016-08-18T11:53:50.685Z,23.63
2016-08-18T11:54:50.689Z,23.47
2016-08-18T11:55:50.687Z,23.39
2016-08-18T11:56:50.697Z,23.46
2016-08-18T12:12:04.108Z,20.29
2016-08-18T12:13:04.116Z,20.1
2016-08-18T12:14:04.113Z,20.16
2016-08-18T12:16:06.883Z,20.29
2016-08-18T12:17:05.387Z,20.23
2016-08-18T12:18:04.729Z,20.33
2016-08-18T12:19:05.438Z,20.41
2016-08-18T12:20:04.737Z,20.51
2016-08-18T12:21:04.860Z,20.74
2016-08-18T12:22:04.743Z,20.82
2016-08-18T12:23:04.894Z,21.03
2016-08-18T12:24:06.182Z,21.22
2016-08-18T12:25:06.519Z,21.32
2016-08-18T12:26:05.359Z,21.49
2016-08-18T12:27:05.475Z,21.77
2016-08-18T12:28:04.757Z,21.96
2016-08-18T12:29:04.770Z,22.2
2016-08-18T12:30:04.771Z,22.36
2016-08-18T12:31:04.767Z,22.33
2016-08-18T12:32:04.777Z,22.46
2016-08-18T12:33:04.773Z,22.64
2016-08-18T12:34:04.781Z,22.8
2016-08-18T12:35:04.775Z,22.9
2016-08-18T12:36:04.774Z,22.92
2016-08-18T12:37:04.773Z,22.98
2016-08-18T12:38:04.788Z,23.12
2016-08-18T12:39:04.781Z,23.07
2016-08-18T12:40:04.788Z,23.19
2016-08-18T12:41:04.792Z,23.19
2016-08-18T12:42:04.806Z,23.33
2016-08-18T12:43:04.800Z,23.5
2016-08-18T12:44:04.799Z,23.51
2016-08-18T12:45:04.806Z,23.68
2016-08-18T12:46:04.815Z,23.85
2016-08-18T12:47:04.820Z,23.97
2016-08-18T12:48:04.813Z,23.94
2016-08-18T12:49:04.824Z,23.85
2016-08-18T12:50:04.826Z,23.83
2016-08-18T12:51:04.828Z,23.68
2016-08-18T12:52:04.839Z,23.66
2016-08-18T12:53:05.135Z,23.68
2016-08-18T12:54:04.839Z,23.7
2016-08-18T12:55:04.842Z,23.65
2016-08-18T12:56:04.844Z,23.55
2016-08-18T12:57:04.851Z,23.6
2016-08-18T12:58:04.851Z,23.54
2016-08-18T12:59:04.852Z,23.48
2016-08-18T13:00:04.862Z,23.4
2016-08-18T13:01:04.863Z,23.25
2016-08-18T13:02:05.016Z,23.23
2016-08-18T13:03:05.117Z,23.19
2016-08-18T13:04:04.976Z,23.19
2016-08-18T13:05:05.182Z,23.25
2016-08-18T13:06:05.934Z,23.22
2016-08-18T13:07:04.889Z,23.35
2016-08-18T13:08:05.253Z,23.48
2016-08-18T13:09:04.894Z,23.48
2016-08-18T13:10:04.896Z,23.69
2016-08-18T13:11:04.907Z,23.66
2016-08-18T13:12:04.907Z,23.61
2016-08-18T13:13:04.908Z,23.66
2016-08-18T13:14:04.913Z,23.6
2016-08-18T13:15:04.921Z,23.7
2016-08-18T13:16:04.933Z,23.85
2016-08-18T13:17:05.622Z,24.06
2016-08-18T13:18:04.945Z,24.09
2016-08-18T13:19:04.928Z,24.16
2016-08-18T13:20:04.939Z,24.3
2016-08-18T13:21:04.945Z,24.32
2016-08-18T13:22:04.944Z,24.35
2016-08-18T13:23:05.048Z,24.31
2016-08-18T13:24:04.950Z,24.24
2016-08-18T13:25:04.958Z,24.1
2016-08-18T13:26:04.957Z,23.87
2016-08-18T13:27:04.965Z,23.68
2016-08-18T13:28:04.972Z,23.7
2016-08-18T13:29:04.984Z,23.66
2016-08-18T13:30:04.975Z,23.76
2016-08-18T13:31:04.983Z,23.72
2016-08-18T13:32:04.980Z,23.72
2016-08-18T13:34:05.277Z,23.98
2016-08-18T13:35:05.688Z,24.18
2016-08-18T13:36:05.007Z,24.21